Flight Track Log - Related Links

Times and Time Zones

All times are in EDT time to prevent confusion due to time zone crossing. See the AMF1026 flight status page for this flight to view local times or setup timezone preferences in your user account.

Time Position Orientation Groundspeed Altitude Reporting Facility
EDT Latitude Longitude Course Direction KTS MPH feet Rate Location/Type
Thu 20:46:36 42.7653 -73.8061 336° Northwest 159 183 800  Level Boston Center
Thu 20:47:43 42.8192 -73.8383 336° Northwest 213 245 2,400 1,552 Climbing Boston Center
Thu 20:48:32 42.8142 -73.8978 263° West 203 234 3,800 1,486 Climbing Boston Center
Thu 20:49:32 42.7964 -73.9764 253° West 216 249 5,100 1,300 Climbing Boston Center
Thu 20:50:32 42.7767 -74.0581 252° West 251 289 6,400 1,300 Climbing Boston Center
Thu 20:51:32 42.7567 -74.1367 251° West 233 268 7,700 1,300 Climbing Boston Center
Thu 20:52:32 42.7492 -74.2128 262° West 233 268 9,000 1,100 Climbing Boston Center
Thu 20:53:32 42.7372 -74.3058 260° West 233 268 9,900 500 Climbing Boston Center
Thu 20:54:32 42.7006 -74.3811 236° Southwest 249 287 10,000 500 Climbing Boston Center
Thu 20:55:32 42.6636 -74.4786 243° Southwest 265 305 10,900 850 Climbing Boston Center
Thu 20:56:32 42.6453 -74.5628 254° West 265 305 11,700 800 Climbing Boston Center
Thu 20:57:32 42.6183 -74.6633 250° West 265 305 12,500 850 Climbing Boston Center
Thu 20:58:32 42.5958 -74.7500 251° West 265 305 13,400 950 Climbing Boston Center
Thu 20:59:32 42.5706 -74.8533 252° West 270 311 14,400 850 Climbing Boston Center
Thu 21:00:32 42.5478 -74.9428 251° West 263 303 15,100 800 Climbing Boston Center
Thu 21:01:32 42.5250 -75.0292 250° West 257 296 16,000 450 Climbing Boston Center
Thu 21:02:32 42.5000 -75.1183 249° West 257 296 16,000  Level Boston Center
Thu 21:03:32 42.4728 -75.2156 249° West 257 296 16,000 31 Level Boston Center
Thu 21:05:46 42.4050 -75.4153 245° Southwest 276 318 16,100 31 Climbing New York Center
Thu 21:06:47 42.3742 -75.5114 247° West 276 318 16,100  Level New York Center
Thu 21:07:45 42.3433 -75.6044 246° West 281 323 16,100  Level New York Center
Thu 21:08:46 42.3144 -75.6978 247° West 281 323 16,100  Level New York Center
Thu 21:09:47 42.2836 -75.7878 245° Southwest 275 316 16,100  Level New York Center
Thu 21:10:47 42.2531 -75.8725 244° Southwest 270 311 16,100  Level New York Center
Thu 21:11:45 42.2219 -75.9622 245° Southwest 270 311 16,100  Level New York Center
Thu 21:12:45 42.1933 -76.0469 246° West 265 305 16,100  Level New York Center
Thu 21:13:46 42.1625 -76.1311 244° Southwest 265 305 16,100  Level New York Center
Thu 21:14:47 42.1317 -76.2181 244° Southwest 259 298 16,100  Level New York Center
Thu 21:15:47 42.0983 -76.3047 243° Southwest 259 298 16,100  Level New York Center
Thu 21:16:46 42.0694 -76.3889 245° Southwest 259 298 16,100 -51 Level New York Center
Thu 21:17:45 42.0383 -76.4756 244° Southwest 254 292 16,000 -50 Descending New York Center
Thu 21:18:46 42.0092 -76.5625 246° West 254 292 16,000  Level New York Center
Thu 21:19:46 41.9822 -76.6467 247° West 254 292 16,000  Level New York Center
Thu 21:21:35 41.9333 -76.8092 248° West 254 292 16,000  Level Cleveland Center
Thu 21:22:35 41.9050 -76.8944 246° West 254 292 16,000  Level Cleveland Center
Thu 21:23:35 41.8764 -76.9769 245° Southwest 254 292 16,000  Level Cleveland Center
Thu 21:24:35 41.8436 -77.0625 243° Southwest 254 292 16,000  Level Cleveland Center
Thu 21:25:35 41.8169 -77.1506 248° West 260 299 16,000  Level Cleveland Center
Thu 21:26:35 41.7861 -77.2356 244° Southwest 260 299 16,000  Level Cleveland Center
Thu 21:27:35 41.7553 -77.3181 243° Southwest 260 299 16,000  Level Cleveland Center
Thu 21:28:35 41.7222 -77.4031 243° Southwest 260 299 16,000  Level Cleveland Center
Thu 21:29:35 41.6931 -77.4853 245° Southwest 260 299 16,000  Level Cleveland Center
Thu 21:30:35 41.6561 -77.5814 243° Southwest 260 299 16,000  Level Cleveland Center
Thu 21:31:35 41.6247 -77.6636 243° Southwest 260 299 16,000  Level Cleveland Center
Thu 21:32:35 41.5933 -77.7456 243° Southwest 260 299 16,000  Level Cleveland Center
Thu 21:33:35 41.5644 -77.8328 246° West 260 299 16,000  Level Cleveland Center
Thu 21:34:35 41.5350 -77.9144 244° Southwest 260 299 16,000  Level Cleveland Center
Thu 21:35:35 41.5036 -78.0017 244° Southwest 260 299 16,000  Level Cleveland Center
Thu 21:36:35 41.4783 -78.0858 248° West 260 299 16,000  Level Cleveland Center
Thu 21:37:35 41.4511 -78.1728 247° West 260 299 16,000  Level Cleveland Center
Thu 21:38:35 41.4258 -78.2597 249° West 260 299 16,000  Level Cleveland Center
Thu 21:39:35 41.4003 -78.3436 248° West 255 293 16,000  Level Cleveland Center
Thu 21:40:35 41.3750 -78.4331 249° West 255 293 16,000  Level Cleveland Center
Thu 21:41:35 41.3472 -78.5197 247° West 255 293 16,000  Level Cleveland Center
Thu 21:42:35 41.3217 -78.6061 249° West 255 293 16,000  Level Cleveland Center
Thu 21:43:35 41.2961 -78.6928 249° West 255 293 16,000  Level Cleveland Center
Thu 21:44:35 41.2683 -78.7792 247° West 255 293 16,000  Level Cleveland Center
Thu 21:45:35 41.2467 -78.8653 252° West 255 293 16,000  Level Cleveland Center
Thu 21:46:35 41.2228 -78.9406 247° West 255 293 16,000  Level Cleveland Center
Thu 21:47:35 41.1969 -79.0294 249° West 255 293 16,000  Level Cleveland Center
Thu 21:48:35 41.1731 -79.1128 249° West 255 293 16,000  Level Cleveland Center
Thu 21:49:35 41.1469 -79.2017 249° West 255 293 16,000  Level Cleveland Center
Thu 21:50:35 41.1189 -79.2961 249° West 255 293 16,000  Level Cleveland Center
Thu 21:51:35 41.0928 -79.3792 247° West 255 293 16,000  Level Cleveland Center
Thu 21:52:35 41.0664 -79.4622 247° West 255 293 16,000  Level Cleveland Center
Thu 21:53:35 41.0381 -79.5453 246° West 255 293 16,000  Level Cleveland Center
Thu 21:54:35 41.0075 -79.6283 244° Southwest 255 293 16,000  Level Cleveland Center
Thu 21:55:35 40.9811 -79.7114 247° West 255 293 16,000  Level Cleveland Center
Thu 21:56:35 40.9525 -79.7942 245° Southwest 255 293 16,000  Level Cleveland Center
Thu 21:57:35 40.9258 -79.8769 247° West 255 293 16,000  Level Cleveland Center
Thu 21:58:35 40.8994 -79.9622 248° West 255 293 16,000  Level Cleveland Center
Thu 21:59:35 40.8747 -80.0450 248° West 255 293 16,000  Level Cleveland Center
Thu 22:00:35 40.8481 -80.1303 248° West 255 293 16,000  Level Cleveland Center
Thu 22:01:35 40.8233 -80.2128 248° West 255 293 16,000  Level Cleveland Center
Thu 22:02:35 40.7922 -80.2953 244° Southwest 255 293 16,000  Level Cleveland Center
Thu 22:03:35 40.7550 -80.3611 233° Southwest 255 293 16,000  Level Cleveland Center
Thu 22:04:35 40.7111 -80.4381 233° Southwest 255 293 16,000  Level Cleveland Center
Thu 22:05:35 40.6697 -80.5092 233° Southwest 250 288 16,000  Level Cleveland Center
Thu 22:06:35 40.6300 -80.5803 234° Southwest 250 288 16,000  Level Cleveland Center
Thu 22:07:35 40.5944 -80.6458 234° Southwest 243 280 16,000  Level Cleveland Center
Thu 22:08:35 40.5550 -80.7169 234° Southwest 237 273 16,000  Level Cleveland Center
Thu 22:09:35 40.5172 -80.7881 235° Southwest 242 278 16,000  Level Cleveland Center
Thu 22:10:35 40.4817 -80.8589 237° Southwest 242 278 16,000  Level Cleveland Center
Thu 22:11:35 40.4481 -80.9322 239° Southwest 242 278 16,000  Level Cleveland Center
Thu 22:12:35 40.4125 -81.0083 238° Southwest 242 278 16,000 -50 Level Cleveland Center
Thu 22:13:35 40.3786 -81.0819 239° Southwest 242 278 15,900 -50 Descending Cleveland Center
Thu 22:14:35 40.3431 -81.1550 237° Southwest 237 273 15,900  Level Cleveland Center
Thu 22:15:35 40.3050 -81.2283 236° Southwest 237 273 15,900  Level Cleveland Center
Thu 22:16:35 40.2672 -81.2986 235° Southwest 237 273 15,900 29 Level Cleveland Center
Thu 22:19:00 40.1844 -81.4692 238° Southwest 236 272 16,000 29 Climbing Indianapolis Center
Thu 22:20:01 40.1553 -81.5489 244° Southwest 239 275 16,000  Level Indianapolis Center
Thu 22:21:02 40.1286 -81.6314 247° West 243 280 16,000  Level Indianapolis Center
Thu 22:22:04 40.0975 -81.7250 247° West 240 276 16,000  Level Indianapolis Center
Thu 22:23:05 40.0731 -81.7997 247° West 242 278 16,000  Level Indianapolis Center
Thu 22:24:06 40.0456 -81.8814 246° West 243 280 16,000  Level Indianapolis Center
Thu 22:25:07 40.0175 -81.9631 246° West 244 281 16,000  Level Indianapolis Center
Thu 22:26:09 39.9914 -82.0461 248° West 245 282 16,000  Level Indianapolis Center
Thu 22:27:10 39.9636 -82.1275 246° West 245 282 16,000  Level Indianapolis Center
Thu 22:28:11 39.9361 -82.2086 246° West 244 281 16,000  Level Indianapolis Center
Thu 22:29:12 39.9075 -82.2900 245° Southwest 245 282 16,000  Level Indianapolis Center
Thu 22:30:14 39.8778 -82.3708 244° Southwest 245 282 16,000  Level Indianapolis Center
Thu 22:31:15 39.8456 -82.4661 246° West 246 283 16,000  Level Indianapolis Center
Thu 22:32:16 39.8175 -82.5458 245° Southwest 241 277 16,000  Level Indianapolis Center
Thu 22:33:18 39.7881 -82.6258 244° Southwest 242 278 16,000  Level Indianapolis Center
Thu 22:34:19 39.7586 -82.7044 244° Southwest 242 278 16,000  Level Indianapolis Center
Thu 22:35:20 39.7300 -82.7856 245° Southwest 244 281 16,000  Level Indianapolis Center
Thu 22:36:22 39.7011 -82.8647 245° Southwest 241 277 16,000  Level Indianapolis Center
Thu 22:37:23 39.6711 -82.9436 244° Southwest 241 277 16,000  Level Indianapolis Center
Thu 22:38:24 39.6411 -83.0231 244° Southwest 243 280 16,000 -49 Level Indianapolis Center
Thu 22:39:26 39.6108 -83.1017 243° Southwest 241 277 15,900 -293 Descending Indianapolis Center
Thu 22:40:27 39.5778 -83.1822 242° Southwest 247 284 15,400 -683 Descending Indianapolis Center
Thu 22:41:29 39.5456 -83.2697 244° Southwest 263 303 14,500 -829 Descending Indianapolis Center
Thu 22:42:30 39.5156 -83.3619 247° West 274 315 13,700 -836 Descending Indianapolis Center
Thu 22:43:31 39.4872 -83.4533 248° West 271 312 12,800 -976 Descending Indianapolis Center
Thu 22:44:33 39.4536 -83.5456 245° Southwest 277 319 11,700 -878 Descending Indianapolis Center
Thu 22:45:34 39.4231 -83.6358 246° West 273 314 11,000 -344 Descending Indianapolis Center
Thu 22:46:35 39.3917 -83.7167 243° Southwest 256 295 11,000  Level Indianapolis Center
Thu 22:47:37 39.3597 -83.7933 242° Southwest 243 280 11,000  Level Indianapolis Center
Thu 22:48:38 39.3275 -83.8722 242° Southwest 244 281 11,000  Level Indianapolis Center
Thu 22:49:40 39.2911 -83.9633 243° Southwest 242 278 11,000 -244 Level Indianapolis Center
Thu 22:50:41 39.2464 -84.0308 229° Southwest 245 282 10,500 -639 Descending Indianapolis Center
Thu 22:51:42 39.1969 -84.0994 227° Southwest 255 293 9,700 -878 Descending Indianapolis Center
Thu 22:52:44 39.1569 -84.1583 229° Southwest 221 254 8,700 -871 Descending Indianapolis Center
Thu 22:53:46 39.1222 -84.2161 232° Southwest 202 232 7,900 -878 Descending Indianapolis Center
Thu 22:54:47 39.0775 -84.2756 226° Southwest 220 253 6,900 -934 Descending Indianapolis Center
Thu 22:55:48 39.0300 -84.3383 226° Southwest 238 274 6,000 -757 Descending Indianapolis Center
Thu 22:56:38 38.9833 -84.4000 226° Southwest 243 280 5,500 -519 Descending Cincinnati TRACON
Thu 22:57:32 38.9500 -84.4500 229° Southwest 244 281 5,100 -263 Descending Cincinnati TRACON
Thu 22:58:32 38.9167 -84.5167 237° Southwest 199 229 5,000 -632 Descending Cincinnati TRACON
Thu 22:59:26 38.9167 -84.5833 270° West 192 221 3,900 -1,100 Descending Cincinnati TRACON
Thu 23:00:32 38.9333 -84.6500 288° West 195 224 2,800 -900 Descending Cincinnati TRACON
Thu 23:01:26 38.9667 -84.6667 339° North 176 203 2,100 -700 Descending Cincinnati TRACON
Thu 23:02:32 39.0167 -84.6667 360° North 131 151 1,400 -636 Descending Cincinnati TRACON

Login

Don't have an account? Register now (free) for customized features, flight alerts, and more!